createdAt,value
2016-12-05T00:00:06.113Z,-6.65
2016-12-05T00:01:05.962Z,-6.69
2016-12-05T00:02:05.588Z,-6.79
2016-12-05T00:03:05.353Z,-6.68
2016-12-05T00:04:05.884Z,-6.56
2016-12-05T00:05:05.803Z,-6.56
2016-12-05T00:06:05.553Z,-6.68
2016-12-05T00:07:05.606Z,-6.81
2016-12-05T00:08:06.202Z,-6.92
2016-12-05T00:09:06.494Z,-6.93
2016-12-05T00:10:05.211Z,-7
2016-12-05T00:11:05.769Z,-7.05
2016-12-05T00:12:05.668Z,-7.13
2016-12-05T00:13:06.587Z,-7.18
2016-12-05T00:14:05.756Z,-7.23
2016-12-05T00:15:05.615Z,-7.42
2016-12-05T00:16:05.888Z,-7.47
2016-12-05T00:17:05.742Z,-7.58
2016-12-05T00:18:05.616Z,-7.68
2016-12-05T00:19:06.544Z,-7.68
2016-12-05T00:20:05.598Z,-7.74
2016-12-05T00:21:05.903Z,-7.7
2016-12-05T00:22:06.538Z,-7.65
2016-12-05T00:23:06.654Z,-7.83
2016-12-05T00:24:06.051Z,-7.91
2016-12-05T00:25:06.895Z,-8.03
2016-12-05T00:26:05.821Z,-8.07
2016-12-05T00:27:05.804Z,-8.07
2016-12-05T00:28:06.727Z,-8.07
2016-12-05T00:29:05.784Z,-7.91
2016-12-05T00:30:05.865Z,-7.79
2016-12-05T00:31:06.047Z,-7.86
2016-12-05T00:32:05.745Z,-7.81
2016-12-05T00:33:05.942Z,-7.91
2016-12-05T00:34:06.103Z,-7.72
2016-12-05T00:35:06.404Z,-7.63
2016-12-05T00:36:05.916Z,-7.56
2016-12-05T00:37:06.199Z,-7.38
2016-12-05T00:38:05.799Z,-7.33
2016-12-05T00:39:05.964Z,-7.44
2016-12-05T00:40:06.503Z,-7.49
2016-12-05T00:41:06.303Z,-7.46
2016-12-05T00:42:05.993Z,-7.64
2016-12-05T00:43:06.020Z,-7.64
2016-12-05T00:44:06.120Z,-7.61
2016-12-05T00:45:06.145Z,-7.68
2016-12-05T00:46:06.276Z,-7.74
2016-12-05T00:47:06.336Z,-7.79
2016-12-05T00:48:06.280Z,-7.74
2016-12-05T00:49:05.882Z,-7.93
2016-12-05T00:50:07.156Z,-8.16
2016-12-05T00:51:05.920Z,-8.07
2016-12-05T00:52:05.975Z,-8.22
2016-12-05T00:53:06.258Z,-8.36
2016-12-05T00:54:06.146Z,-8.32
2016-12-05T00:55:07.044Z,-8.39
2016-12-05T00:56:06.604Z,-8.32
2016-12-05T00:57:06.472Z,-8.25
2016-12-05T00:58:06.101Z,-8.28
2016-12-05T00:59:05.907Z,-8.39
2016-12-05T01:00:06.265Z,-8.26
2016-12-05T01:01:06.320Z,-8.32
2016-12-05T01:02:06.031Z,-8.36
2016-12-05T01:03:06.297Z,-8.37
2016-12-05T01:04:05.725Z,-8.18
2016-12-05T01:05:06.647Z,-8.39
2016-12-05T01:06:06.901Z,-8.18
2016-12-05T01:07:06.275Z,-8.13
2016-12-05T01:08:06.030Z,-7.99
2016-12-05T01:09:06.356Z,-7.81
2016-12-05T01:10:06.149Z,-7.79
2016-12-05T01:11:06.946Z,-7.83
2016-12-05T01:12:06.045Z,-7.91
2016-12-05T01:13:06.712Z,-7.93
2016-12-05T01:14:06.028Z,-7.86
2016-12-05T01:15:06.105Z,-7.92
2016-12-05T01:16:06.443Z,-8.11
2016-12-05T01:17:06.103Z,-8.05
2016-12-05T01:18:06.950Z,-8.1
2016-12-05T01:19:06.828Z,-8.19
2016-12-05T01:20:06.956Z,-8.1
2016-12-05T01:21:06.715Z,-8.18
2016-12-05T01:22:06.183Z,-8.07
2016-12-05T01:23:07.009Z,-8.15
2016-12-05T01:24:06.533Z,-8.04
2016-12-05T01:25:06.597Z,-7.97
2016-12-05T01:26:06.191Z,-7.97
2016-12-05T01:27:06.821Z,-7.85
2016-12-05T01:28:07.220Z,-7.83
2016-12-05T01:29:06.808Z,-7.92
2016-12-05T01:30:06.555Z,-7.91
2016-12-05T01:31:06.420Z,-7.72
2016-12-05T01:32:06.444Z,-7.7
2016-12-05T01:33:06.853Z,-7.75
2016-12-05T01:34:07.116Z,-7.6
2016-12-05T01:35:06.514Z,-7.68
2016-12-05T01:36:06.222Z,-7.7
2016-12-05T01:37:06.798Z,-7.67
2016-12-05T01:38:06.458Z,-7.81
2016-12-05T01:39:06.439Z,-7.7
2016-12-05T01:40:06.271Z,-7.67
2016-12-05T01:41:06.820Z,-7.58
2016-12-05T01:42:06.272Z,-7.6
2016-12-05T01:43:06.575Z,-7.46
2016-12-05T01:44:06.267Z,-7.36
2016-12-05T01:45:06.784Z,-7.28
2016-12-05T01:46:06.389Z,-7.18
2016-12-05T01:47:06.796Z,-7.13
2016-12-05T01:48:07.098Z,-7.1
2016-12-05T01:49:06.553Z,-7.13
2016-12-05T01:50:06.697Z,-7.29
2016-12-05T01:51:06.304Z,-7.26
2016-12-05T01:52:07.157Z,-7.42
2016-12-05T01:53:07.329Z,-7.5
2016-12-05T01:54:06.658Z,-7.43
2016-12-05T01:55:06.693Z,-7.47
2016-12-05T01:56:06.526Z,-7.58
2016-12-05T01:57:07.342Z,-7.5
2016-12-05T01:58:07.107Z,-7.54
2016-12-05T01:59:06.585Z,-7.61
2016-12-05T02:00:07.305Z,-7.75
2016-12-05T02:01:06.512Z,-7.74
2016-12-05T02:02:06.489Z,-7.78
2016-12-05T02:03:06.671Z,-7.65
2016-12-05T02:04:06.850Z,-7.74
2016-12-05T02:05:06.628Z,-7.74
2016-12-05T02:06:06.484Z,-7.72
2016-12-05T02:07:06.597Z,-7.79
2016-12-05T02:08:06.896Z,-7.72
2016-12-05T02:09:06.966Z,-7.64
2016-12-05T02:10:06.783Z,-7.44
2016-12-05T02:11:07.589Z,-7.31
2016-12-05T02:12:07.769Z,-7.15
2016-12-05T02:13:07.272Z,-7
2016-12-05T02:14:07.192Z,-6.97
2016-12-05T02:15:06.521Z,-6.96
2016-12-05T02:16:07.922Z,-6.9
2016-12-05T02:17:06.646Z,-6.89
2016-12-05T02:18:06.512Z,-6.92
2016-12-05T02:19:07.586Z,-6.92
2016-12-05T02:20:07.302Z,-6.93
2016-12-05T02:21:07.507Z,-6.93
2016-12-05T02:22:07.242Z,-6.86
2016-12-05T02:23:06.651Z,-6.93
2016-12-05T02:24:07.214Z,-6.96
2016-12-05T02:25:07.340Z,-6.9
2016-12-05T02:26:07.635Z,-6.76
2016-12-05T02:27:06.711Z,-6.83
2016-12-05T02:28:06.901Z,-6.69
2016-12-05T02:29:06.508Z,-6.66
2016-12-05T02:30:06.708Z,-6.58
2016-12-05T02:31:06.993Z,-6.69
2016-12-05T02:32:07.344Z,-6.81
2016-12-05T02:33:07.130Z,-6.9
2016-12-05T02:34:06.837Z,-6.99
2016-12-05T02:35:06.803Z,-6.99
2016-12-05T02:36:07.940Z,-7.14
2016-12-05T02:37:06.859Z,-6.99
2016-12-05T02:38:06.688Z,-7.04
2016-12-05T02:39:06.670Z,-7.13
2016-12-05T02:40:07.134Z,-6.86
2016-12-05T02:41:07.564Z,-6.87
2016-12-05T02:42:07.735Z,-6.72
2016-12-05T02:43:07.233Z,-6.58
2016-12-05T02:44:07.785Z,-6.61
2016-12-05T02:45:07.415Z,-6.66
2016-12-05T02:46:07.631Z,-6.65
2016-12-05T02:47:07.762Z,-6.6
2016-12-05T02:48:07.749Z,-6.58
2016-12-05T02:49:07.683Z,-6.54
2016-12-05T02:50:07.291Z,-6.46
2016-12-05T02:51:06.915Z,-6.41
2016-12-05T02:52:07.367Z,-6.24
2016-12-05T02:53:06.931Z,-6.18
2016-12-05T02:54:07.302Z,-6.11
2016-12-05T02:55:07.326Z,-6.14
2016-12-05T02:56:07.457Z,-6.02
2016-12-05T02:57:07.242Z,-6.17
2016-12-05T02:58:06.897Z,-6
2016-12-05T02:59:07.474Z,-5.99
2016-12-05T03:00:07.637Z,-5.99
2016-12-05T03:01:07.261Z,-5.89
2016-12-05T03:02:08.477Z,-5.82
2016-12-05T03:03:07.096Z,-5.66
2016-12-05T03:04:07.833Z,-5.64
2016-12-05T03:05:07.816Z,-5.63
2016-12-05T03:06:07.284Z,-5.51
2016-12-05T03:07:07.161Z,-5.64
2016-12-05T03:08:07.176Z,-5.67
2016-12-05T03:09:07.406Z,-5.79
2016-12-05T03:10:07.365Z,-5.84
2016-12-05T03:11:07.558Z,-6.11
2016-12-05T03:12:07.344Z,-6.26
2016-12-05T03:13:08.055Z,-6.35
2016-12-05T03:14:07.481Z,-6.41
2016-12-05T03:15:07.491Z,-6.53
2016-12-05T03:16:07.048Z,-6.6
2016-12-05T03:17:07.295Z,-6.54
2016-12-05T03:18:08.059Z,-6.36
2016-12-05T03:19:07.546Z,-6.42
2016-12-05T03:20:07.643Z,-6.53
2016-12-05T03:21:07.531Z,-6.58
2016-12-05T03:22:07.426Z,-6.72
2016-12-05T03:23:07.925Z,-6.79
2016-12-05T03:24:07.404Z,-6.92
2016-12-05T03:25:07.408Z,-6.97
2016-12-05T03:26:07.480Z,-6.96
2016-12-05T03:27:07.612Z,-6.78
2016-12-05T03:28:07.375Z,-6.6
2016-12-05T03:29:07.326Z,-6.46
2016-12-05T03:30:07.816Z,-6.41
2016-12-05T03:31:07.446Z,-6.23
2016-12-05T03:32:07.107Z,-6.29
2016-12-05T03:33:07.266Z,-6.23
2016-12-05T03:34:08.116Z,-6.13
2016-12-05T03:35:08.238Z,-6.08
2016-12-05T03:36:07.878Z,-6.11
2016-12-05T03:37:07.620Z,-6.2
2016-12-05T03:38:07.525Z,-6.44
2016-12-05T03:39:07.958Z,-6.41
2016-12-05T03:40:07.785Z,-6.61
2016-12-05T03:41:07.784Z,-6.74
2016-12-05T03:42:07.759Z,-6.84
2016-12-05T03:43:07.266Z,-6.92
2016-12-05T03:44:07.317Z,-7.03
2016-12-05T03:45:07.517Z,-7.03
2016-12-05T03:46:08.076Z,-7.1
2016-12-05T03:47:08.137Z,-7.33
2016-12-05T03:48:07.634Z,-7.29
2016-12-05T03:49:07.627Z,-7.29
2016-12-05T03:50:07.668Z,-7.35
2016-12-05T03:51:07.275Z,-7.28
2016-12-05T03:52:07.646Z,-7.18
2016-12-05T03:53:08.392Z,-7.26
2016-12-05T03:54:07.567Z,-7.22
2016-12-05T03:55:07.924Z,-7.1
2016-12-05T03:56:07.485Z,-6.99
2016-12-05T03:57:07.896Z,-6.93
2016-12-05T03:58:07.413Z,-6.72
2016-12-05T03:59:08.622Z,-6.61
2016-12-05T04:00:07.792Z,-6.54
2016-12-05T04:01:07.479Z,-6.44
2016-12-05T04:02:07.811Z,-6.32
2016-12-05T04:03:07.584Z,-6.28
2016-12-05T04:04:07.449Z,-6.23
2016-12-05T04:05:07.755Z,-6.17
2016-12-05T04:06:07.669Z,-6.2
2016-12-05T04:07:08.270Z,-6.18
2016-12-05T04:08:08.057Z,-6.2
2016-12-05T04:09:07.686Z,-6.21
2016-12-05T04:10:08.236Z,-6.1
2016-12-05T04:11:08.278Z,-6.2
2016-12-05T04:12:08.481Z,-5.95
2016-12-05T04:13:08.329Z,-5.75
2016-12-05T04:14:07.925Z,-5.57
2016-12-05T04:15:08.245Z,-5.33
2016-12-05T04:16:08.220Z,-5.35
2016-12-05T04:17:08.231Z,-5.42
2016-12-05T04:18:08.492Z,-5.39
2016-12-05T04:19:07.752Z,-5.4
2016-12-05T04:20:07.742Z,-5.43
2016-12-05T04:21:07.703Z,-5.38
2016-12-05T04:22:07.866Z,-5.39
2016-12-05T04:23:08.502Z,-5.33
2016-12-05T04:24:07.891Z,-5.35
2016-12-05T04:25:07.893Z,-5.33
2016-12-05T04:26:07.868Z,-5.22
2016-12-05T04:27:08.344Z,-5.25
2016-12-05T04:28:07.855Z,-5.25
2016-12-05T04:29:08.027Z,-5.17
2016-12-05T04:30:07.909Z,-5.09
2016-12-05T04:31:07.901Z,-5.19
2016-12-05T04:32:08.344Z,-4.99
2016-12-05T04:33:07.717Z,-4.96
2016-12-05T04:34:07.822Z,-5
2016-12-05T04:35:08.230Z,-5.05
2016-12-05T04:36:07.789Z,-5
2016-12-05T04:37:07.583Z,-4.78
2016-12-05T04:38:08.397Z,-4.96
2016-12-05T04:39:08.596Z,-4.84
2016-12-05T04:40:08.738Z,-4.69
2016-12-05T04:41:07.830Z,-4.75
2016-12-05T04:42:07.940Z,-4.71
2016-12-05T04:43:08.162Z,-4.64
2016-12-05T04:44:08.194Z,-4.6
2016-12-05T04:45:08.282Z,-4.69
2016-12-05T04:46:07.724Z,-4.59
2016-12-05T04:47:08.276Z,-4.67
2016-12-05T04:48:07.731Z,-4.57
2016-12-05T04:49:08.217Z,-4.7
2016-12-05T04:50:08.824Z,-4.69
2016-12-05T04:51:07.957Z,-4.66
2016-12-05T04:52:08.103Z,-4.64
2016-12-05T04:53:08.060Z,-4.55
2016-12-05T04:54:07.979Z,-4.64
2016-12-05T04:55:08.031Z,-4.55
2016-12-05T04:56:08.428Z,-4.6
2016-12-05T04:57:08.137Z,-4.71
2016-12-05T04:58:08.327Z,-4.71
2016-12-05T04:59:08.360Z,-4.7
2016-12-05T05:00:08.434Z,-4.77
2016-12-05T05:01:08.260Z,-4.78
2016-12-05T05:02:08.883Z,-4.71
2016-12-05T05:03:09.124Z,-4.7
2016-12-05T05:04:08.634Z,-4.69
2016-12-05T05:05:08.805Z,-4.75
2016-12-05T05:06:09.424Z,-4.73
2016-12-05T05:07:08.586Z,-4.71
2016-12-05T05:08:08.402Z,-4.67
2016-12-05T05:09:08.512Z,-4.75
2016-12-05T05:10:08.843Z,-4.78
2016-12-05T05:11:08.388Z,-4.88
2016-12-05T05:12:08.915Z,-4.81
2016-12-05T05:13:08.211Z,-4.84
2016-12-05T05:14:08.382Z,-4.88
2016-12-05T05:15:08.966Z,-4.88
2016-12-05T05:16:08.599Z,-4.92
2016-12-05T05:17:08.448Z,-4.95
2016-12-05T05:18:08.634Z,-4.95
2016-12-05T05:19:08.967Z,-4.96
2016-12-05T05:20:09.435Z,-4.81
2016-12-05T05:21:09.360Z,-4.87
2016-12-05T05:22:08.871Z,-4.95
2016-12-05T05:23:09.205Z,-4.88
2016-12-05T05:24:09.016Z,-4.88
2016-12-05T05:25:08.614Z,-4.75
2016-12-05T05:26:08.973Z,-4.84
2016-12-05T05:27:08.779Z,-4.82
2016-12-05T05:28:09.645Z,-4.99
2016-12-05T05:29:09.821Z,-4.84
2016-12-05T05:30:09.150Z,-4.79
2016-12-05T05:31:09.477Z,-4.88
2016-12-05T05:32:08.915Z,-4.77
2016-12-05T05:33:09.280Z,-4.87
2016-12-05T05:34:09.032Z,-4.92
2016-12-05T05:35:08.726Z,-4.88
2016-12-05T05:36:09.333Z,-4.91
2016-12-05T05:37:09.098Z,-4.88
2016-12-05T05:38:09.886Z,-4.88
2016-12-05T05:39:08.369Z,-4.99
2016-12-05T05:40:09.538Z,-4.89
2016-12-05T05:41:08.955Z,-4.89
2016-12-05T05:42:08.948Z,-4.96
2016-12-05T05:43:09.503Z,-5
2016-12-05T05:44:09.251Z,-5
2016-12-05T05:45:08.979Z,-5.02
2016-12-05T05:46:09.211Z,-4.91
2016-12-05T05:47:09.007Z,-5.05
2016-12-05T05:48:08.784Z,-5.08
2016-12-05T05:49:09.285Z,-5.03
2016-12-05T05:50:08.613Z,-5.27
2016-12-05T05:51:09.562Z,-5.19
2016-12-05T05:52:09.521Z,-5.27
2016-12-05T05:53:09.111Z,-5.35
2016-12-05T05:54:09.096Z,-5.35
2016-12-05T05:55:08.733Z,-5.36
2016-12-05T05:56:09.087Z,-5.31
2016-12-05T05:57:09.743Z,-5.46
2016-12-05T05:58:09.081Z,-5.47
2016-12-05T05:59:09.287Z,-5.58
2016-12-05T06:00:09.183Z,-5.56
2016-12-05T06:01:08.922Z,-5.57
2016-12-05T06:02:09.077Z,-5.6
2016-12-05T06:03:10.123Z,-5.63
2016-12-05T06:04:08.754Z,-5.67
2016-12-05T06:05:08.934Z,-5.75
2016-12-05T06:06:09.820Z,-5.79
2016-12-05T06:07:08.995Z,-5.84
2016-12-05T06:08:09.380Z,-5.74
2016-12-05T06:09:09.452Z,-5.75
2016-12-05T06:10:09.885Z,-5.81
2016-12-05T06:11:09.086Z,-5.85
2016-12-05T06:12:09.976Z,-5.74
2016-12-05T06:13:08.779Z,-5.84
2016-12-05T06:14:08.937Z,-5.75
2016-12-05T06:15:09.674Z,-5.81
2016-12-05T06:16:09.224Z,-5.61
2016-12-05T06:17:09.107Z,-5.54
2016-12-05T06:18:09.310Z,-5.49
2016-12-05T06:19:09.087Z,-5.53
2016-12-05T06:20:09.156Z,-5.58
2016-12-05T06:21:09.613Z,-5.54
2016-12-05T06:22:09.380Z,-5.57
2016-12-05T06:23:10.021Z,-5.58
2016-12-05T06:24:08.820Z,-5.57
2016-12-05T06:25:09.232Z,-5.54
2016-12-05T06:26:09.227Z,-5.58
2016-12-05T06:27:09.433Z,-5.63
2016-12-05T06:28:10.012Z,-5.58
2016-12-05T06:29:09.533Z,-5.58
2016-12-05T06:30:08.895Z,-5.6
2016-12-05T06:31:08.703Z,-5.66
2016-12-05T06:32:10.177Z,-5.57
2016-12-05T06:33:09.893Z,-5.45
2016-12-05T06:34:09.492Z,-5.47
2016-12-05T06:35:09.645Z,-5.4
2016-12-05T06:36:09.563Z,-5.35
2016-12-05T06:37:09.864Z,-5.35
2016-12-05T06:38:10.063Z,-5.35
2016-12-05T06:39:09.862Z,-5.31
2016-12-05T06:40:09.184Z,-5.36
2016-12-05T06:41:09.578Z,-5.36
2016-12-05T06:42:09.136Z,-5.49
2016-12-05T06:43:09.280Z,-5.33
2016-12-05T06:44:08.945Z,-5.35
2016-12-05T06:45:09.528Z,-5.4
2016-12-05T06:46:09.422Z,-5.24
2016-12-05T06:47:09.651Z,-5.33
2016-12-05T06:48:09.595Z,-5.39
2016-12-05T06:49:09.459Z,-5.38
2016-12-05T06:50:08.948Z,-5.38
2016-12-05T06:51:08.988Z,-5.43
2016-12-05T06:52:09.962Z,-5.46
2016-12-05T06:53:09.503Z,-5.43
2016-12-05T06:54:10.043Z,-5.42
2016-12-05T06:55:09.102Z,-5.43
2016-12-05T06:56:09.395Z,-5.46
2016-12-05T06:57:09.898Z,-5.46
2016-12-05T06:58:09.850Z,-5.46
2016-12-05T06:59:09.053Z,-5.47
2016-12-05T07:00:09.293Z,-5.6
2016-12-05T07:01:09.005Z,-5.74
2016-12-05T07:02:09.330Z,-5.6
2016-12-05T07:03:09.494Z,-5.74
2016-12-05T07:04:09.823Z,-5.68
2016-12-05T07:05:09.734Z,-5.68
2016-12-05T07:06:09.506Z,-5.68
2016-12-05T07:07:09.390Z,-5.64
2016-12-05T07:08:09.521Z,-5.51
2016-12-05T07:09:09.496Z,-5.53
2016-12-05T07:10:09.262Z,-5.43
2016-12-05T07:11:09.928Z,-5.47
2016-12-05T07:12:09.051Z,-5.33
2016-12-05T07:13:10.095Z,-5.45
2016-12-05T07:14:10.449Z,-5.42
2016-12-05T07:15:09.711Z,-5.45
2016-12-05T07:16:09.790Z,-5.46
2016-12-05T07:17:09.623Z,-5.58
2016-12-05T07:18:09.660Z,-5.45
2016-12-05T07:19:10.076Z,-5.43
2016-12-05T07:20:09.386Z,-5.4
2016-12-05T07:21:09.619Z,-5.49
2016-12-05T07:22:09.577Z,-5.47
2016-12-05T07:23:09.885Z,-5.33
2016-12-05T07:24:09.145Z,-5.46
2016-12-05T07:25:10.469Z,-5.51
2016-12-05T07:26:09.492Z,-5.47
2016-12-05T07:27:09.073Z,-5.46
2016-12-05T07:28:10.329Z,-5.53
2016-12-05T07:29:10.700Z,-5.54
2016-12-05T07:30:09.743Z,-5.56
2016-12-05T07:31:09.918Z,-5.57
2016-12-05T07:32:10.234Z,-5.53
2016-12-05T07:33:10.210Z,-5.47
2016-12-05T07:34:09.505Z,-5.4
2016-12-05T07:35:09.466Z,-5.27
2016-12-05T07:36:10.248Z,-5.31
2016-12-05T07:37:09.846Z,-5.45
2016-12-05T07:38:09.980Z,-5.53
2016-12-05T07:39:09.751Z,-5.53
2016-12-05T07:40:10.063Z,-5.66
2016-12-05T07:41:10.167Z,-5.6
2016-12-05T07:42:09.484Z,-5.6
2016-12-05T07:43:10.293Z,-5.63
2016-12-05T07:44:10.139Z,-5.57
2016-12-05T07:45:10.139Z,-5.57
2016-12-05T07:46:09.981Z,-5.4
2016-12-05T07:47:10.147Z,-5.36
2016-12-05T07:48:09.951Z,-5.38
2016-12-05T07:49:09.941Z,-5.31
2016-12-05T07:50:09.827Z,-5.28
2016-12-05T07:51:10.076Z,-5.22
2016-12-05T07:52:09.848Z,-5.18
2016-12-05T07:53:10.011Z,-5.14
2016-12-05T07:54:10.263Z,-5.13
2016-12-05T07:55:09.887Z,-5.13
2016-12-05T07:56:10.057Z,-5.18
2016-12-05T07:57:09.558Z,-4.99
2016-12-05T07:58:10.809Z,-4.92
2016-12-05T07:59:09.870Z,-4.89
2016-12-05T08:00:09.831Z,-4.89
2016-12-05T08:01:09.881Z,-4.81
2016-12-05T08:02:09.735Z,-4.77
2016-12-05T08:03:10.281Z,-4.91
2016-12-05T08:04:09.863Z,-4.84
2016-12-05T08:05:09.917Z,-4.78
2016-12-05T08:06:09.697Z,-4.77
2016-12-05T08:07:10.584Z,-4.82
2016-12-05T08:08:09.746Z,-4.85
2016-12-05T08:09:10.208Z,-4.87
2016-12-05T08:10:10.221Z,-4.78
2016-12-05T08:11:10.859Z,-4.89
2016-12-05T08:12:09.693Z,-4.87
2016-12-05T08:13:10.598Z,-4.84
2016-12-05T08:14:09.829Z,-4.79
2016-12-05T08:15:10.706Z,-4.91
2016-12-05T08:16:09.943Z,-4.92
2016-12-05T08:17:09.991Z,-4.87
2016-12-05T08:18:10.048Z,-4.87
2016-12-05T08:19:10.061Z,-4.84
2016-12-05T08:20:10.323Z,-4.89
2016-12-05T08:21:10.268Z,-4.81
2016-12-05T08:22:10.102Z,-4.82
2016-12-05T08:23:09.837Z,-4.88
2016-12-05T08:24:10.979Z,-4.95
2016-12-05T08:25:10.019Z,-4.99
2016-12-05T08:26:10.612Z,-4.89
2016-12-05T08:27:10.271Z,-4.91
2016-12-05T08:28:10.447Z,-4.95
2016-12-05T08:29:10.470Z,-4.79
2016-12-05T08:30:10.669Z,-4.87
2016-12-05T08:31:09.989Z,-4.75
2016-12-05T08:32:10.003Z,-4.71
2016-12-05T08:33:10.357Z,-4.73
2016-12-05T08:34:10.231Z,-4.64
2016-12-05T08:35:09.979Z,-4.64
2016-12-05T08:36:09.901Z,-4.46
2016-12-05T08:37:10.386Z,-4.42
2016-12-05T08:38:10.587Z,-4.28
2016-12-05T08:39:10.585Z,-4.24
2016-12-05T08:40:09.922Z,-4.04
2016-12-05T08:41:10.691Z,-3.89
2016-12-05T08:42:10.438Z,-3.86
2016-12-05T08:43:10.547Z,-3.82
2016-12-05T08:44:10.312Z,-3.8
2016-12-05T08:45:10.463Z,-3.7
2016-12-05T08:46:10.419Z,-3.66
2016-12-05T08:47:10.732Z,-3.77
2016-12-05T08:48:11.109Z,-3.64
2016-12-05T08:49:10.393Z,-3.61
2016-12-05T08:50:10.093Z,-3.58
2016-12-05T08:51:10.884Z,-3.46
2016-12-05T08:52:11.229Z,-3.4
2016-12-05T08:53:09.987Z,-3.38
2016-12-05T08:54:10.386Z,-3.25
2016-12-05T08:55:10.508Z,-3.23
2016-12-05T08:56:11.073Z,-3.12
2016-12-05T08:57:10.924Z,-3.15
2016-12-05T08:58:11.123Z,-3.2
2016-12-05T08:59:10.508Z,-3.07
2016-12-05T09:00:10.283Z,-3.17
2016-12-05T09:01:10.230Z,-2.99
2016-12-05T09:02:10.764Z,-2.94
2016-12-05T09:03:10.144Z,-3.04
2016-12-05T09:04:10.228Z,-2.97
2016-12-05T09:05:10.823Z,-2.91
2016-12-05T09:06:10.723Z,-2.97
2016-12-05T09:07:10.804Z,-2.78
2016-12-05T09:08:11.072Z,-2.8
2016-12-05T09:09:10.690Z,-2.81
2016-12-05T09:10:10.731Z,-2.8
2016-12-05T09:11:10.793Z,-2.71
2016-12-05T09:12:11.193Z,-2.69
2016-12-05T09:13:10.967Z,-2.59
2016-12-05T09:14:10.794Z,-2.74
2016-12-05T09:15:11.019Z,-2.8
2016-12-05T09:16:10.753Z,-2.77
2016-12-05T09:17:10.967Z,-2.73
2016-12-05T09:18:10.754Z,-2.69
2016-12-05T09:19:10.961Z,-2.6
2016-12-05T09:20:10.713Z,-2.5
2016-12-05T09:21:11.354Z,-2.59
2016-12-05T09:22:10.480Z,-2.47
2016-12-05T09:23:10.628Z,-2.52
2016-12-05T09:24:11.030Z,-2.48
2016-12-05T09:25:10.904Z,-2.32
2016-12-05T09:26:11.006Z,-2.37
2016-12-05T09:27:10.594Z,-2.28
2016-12-05T09:28:10.746Z,-2.34
2016-12-05T09:29:11.476Z,-2.28
2016-12-05T09:30:11.080Z,-2.3
2016-12-05T09:31:11.013Z,-2.25
2016-12-05T09:32:10.835Z,-2.15
2016-12-05T09:33:10.911Z,-2.19
2016-12-05T09:34:10.824Z,-2.15
2016-12-05T09:35:10.985Z,-2.08
2016-12-05T09:36:11.806Z,-2.05
2016-12-05T09:37:11.327Z,-2.07
2016-12-05T09:38:11.169Z,-2.13
2016-12-05T09:39:11.647Z,-2.05
2016-12-05T09:40:11.072Z,-2.04
2016-12-05T09:41:11.665Z,-2
2016-12-05T09:42:10.783Z,-2.1
2016-12-05T09:43:11.242Z,-2.02
2016-12-05T09:44:10.916Z,-2.01
2016-12-05T09:45:10.654Z,-1.76
2016-12-05T09:46:10.882Z,-1.76
2016-12-05T09:47:11.455Z,-1.95
2016-12-05T09:48:10.996Z,-1.98
2016-12-05T09:49:11.682Z,-1.87
2016-12-05T09:50:10.532Z,-1.94
2016-12-05T09:51:11.584Z,-1.84
2016-12-05T09:52:11.508Z,-1.89
2016-12-05T09:53:10.749Z,-1.95
2016-12-05T09:54:10.724Z,-1.89
2016-12-05T09:55:10.695Z,-1.74
2016-12-05T09:56:11.389Z,-1.65
2016-12-05T09:57:11.239Z,-1.8
2016-12-05T09:58:11.881Z,-1.79
2016-12-05T09:59:10.819Z,-1.62
2016-12-05T10:00:11.513Z,-1.74
2016-12-05T10:01:10.802Z,-1.68
2016-12-05T10:02:12.364Z,-1.74
2016-12-05T10:03:11.260Z,-1.64
2016-12-05T10:04:11.090Z,-1.61
2016-12-05T10:05:11.582Z,-1.56
2016-12-05T10:06:10.985Z,-1.58
2016-12-05T10:07:11.050Z,-1.62
2016-12-05T10:08:11.680Z,-1.43
2016-12-05T10:09:11.387Z,-1.58
2016-12-05T10:10:11.385Z,-1.53
2016-12-05T10:11:11.522Z,-1.35
2016-12-05T10:12:10.678Z,-1.17
2016-12-05T10:13:11.558Z,-1.19
2016-12-05T10:14:10.959Z,-1.25
2016-12-05T10:15:11.586Z,-1.32
2016-12-05T10:16:12.493Z,-1.32
2016-12-05T10:17:11.373Z,-1.44
2016-12-05T10:18:11.198Z,-1.32
2016-12-05T10:19:12.016Z,-1.4
2016-12-05T10:20:11.510Z,-1.71
2016-12-05T10:21:11.603Z,-1.72
2016-12-05T10:22:12.057Z,-1.82
2016-12-05T10:23:11.978Z,-1.87
2016-12-05T10:24:11.475Z,-2
2016-12-05T10:25:11.690Z,-1.98
2016-12-05T10:26:12.354Z,-1.94
2016-12-05T10:27:12.989Z,-1.94
2016-12-05T10:28:12.426Z,-2
2016-12-05T10:29:11.304Z,-1.87
2016-12-05T10:30:11.917Z,-1.74
2016-12-05T10:31:11.711Z,-1.79
2016-12-05T10:32:11.881Z,-1.87
2016-12-05T10:33:11.036Z,-1.74
2016-12-05T10:34:11.852Z,-1.74
2016-12-05T10:35:11.711Z,-1.74
2016-12-05T10:36:11.111Z,-1.54
2016-12-05T10:37:11.741Z,-1.47
2016-12-05T10:38:11.419Z,-1.56
2016-12-05T10:39:11.358Z,-1.43
2016-12-05T10:40:11.924Z,-1.47
2016-12-05T10:41:11.916Z,-1.38
2016-12-05T10:42:11.453Z,-1.32
2016-12-05T10:43:12.163Z,-1.41
2016-12-05T10:44:12.153Z,-1.33
2016-12-05T10:45:11.380Z,-1.29
2016-12-05T10:46:11.948Z,-1.29
2016-12-05T10:47:12.322Z,-1.25
2016-12-05T10:48:11.754Z,-1.4
2016-12-05T10:49:12.084Z,-1.33
2016-12-05T10:50:11.403Z,-1.29
2016-12-05T10:51:11.802Z,-1.3
2016-12-05T10:52:11.548Z,-1.19
2016-12-05T10:53:12.325Z,-1.11
2016-12-05T10:54:12.041Z,-1.11
2016-12-05T10:55:11.548Z,-0.96
2016-12-05T10:56:12.175Z,-0.77
2016-12-05T10:57:11.885Z,-0.71
2016-12-05T10:58:11.406Z,-0.7
2016-12-05T10:59:11.220Z,-0.7
2016-12-05T11:00:12.119Z,-0.52
2016-12-05T11:01:11.519Z,-0.41
2016-12-05T11:02:11.583Z,-0.34
2016-12-05T11:03:12.175Z,-0.39
2016-12-05T11:04:12.348Z,-0.44
2016-12-05T11:05:12.652Z,-0.41
2016-12-05T11:06:11.844Z,-0.41
2016-12-05T11:07:12.661Z,-0.28
2016-12-05T11:08:11.631Z,-0.29
2016-12-05T11:09:12.137Z,-0.28
2016-12-05T11:10:11.758Z,-0.36
2016-12-05T11:11:12.003Z,-0.46
2016-12-05T11:12:12.063Z,-0.34
2016-12-05T11:13:11.563Z,-0.32
2016-12-05T11:14:11.797Z,-0.17
2016-12-05T11:15:11.851Z,-0.18
2016-12-05T11:16:12.280Z,0.01
2016-12-05T11:17:11.721Z,0.01
2016-12-05T11:18:12.044Z,0.18
2016-12-05T11:19:12.531Z,0.07
2016-12-05T11:20:12.489Z,0.08
2016-12-05T11:21:12.191Z,0.07
2016-12-05T11:22:12.587Z,0.18
2016-12-05T11:23:12.074Z,0.15
2016-12-05T11:24:12.842Z,0.12
2016-12-05T11:25:11.788Z,0.18
2016-12-05T11:26:11.932Z,0.23
2016-12-05T11:27:12.431Z,0.32
2016-12-05T11:28:12.036Z,0.37
2016-12-05T11:29:12.147Z,0.43
2016-12-05T11:30:12.100Z,0.47
2016-12-05T11:31:12.854Z,0.43
2016-12-05T11:32:12.961Z,0.62
2016-12-05T11:33:13.131Z,0.56
2016-12-05T11:34:12.472Z,0.59
2016-12-05T11:35:12.241Z,0.6
2016-12-05T11:36:12.318Z,0.78
2016-12-05T11:37:11.982Z,0.94
2016-12-05T11:38:12.217Z,0.99
2016-12-05T11:39:12.008Z,1.17
2016-12-05T11:40:11.840Z,1.24
2016-12-05T11:41:11.963Z,1.16
2016-12-05T11:42:11.979Z,1.13
2016-12-05T11:43:12.153Z,1.24
2016-12-05T11:44:12.572Z,1.28
2016-12-05T11:45:12.601Z,1.23
2016-12-05T11:46:12.453Z,1.37
2016-12-05T11:47:12.356Z,1.4
2016-12-05T11:48:12.401Z,1.4
2016-12-05T11:49:12.570Z,1.44
2016-12-05T11:50:12.573Z,1.73
2016-12-05T11:51:12.709Z,1.84
2016-12-05T11:52:12.672Z,1.87
2016-12-05T11:53:13.263Z,1.84
2016-12-05T11:54:12.296Z,1.66
2016-12-05T11:55:12.325Z,1.56
2016-12-05T11:56:12.149Z,1.55
2016-12-05T11:57:12.724Z,1.52
2016-12-05T11:58:12.383Z,1.62
2016-12-05T11:59:12.786Z,1.49
2016-12-05T12:00:12.621Z,1.41
2016-12-05T12:01:13.071Z,1.48
2016-12-05T12:02:12.529Z,1.42
2016-12-05T12:03:12.463Z,1.5
2016-12-05T12:04:13.021Z,1.45
2016-12-05T12:05:12.880Z,1.41
2016-12-05T12:06:12.860Z,1.41
2016-12-05T12:07:12.726Z,1.5
2016-12-05T12:08:12.355Z,1.71
2016-12-05T12:09:12.546Z,1.5
2016-12-05T12:10:13.527Z,1.2
2016-12-05T12:11:12.507Z,1.35
2016-12-05T12:12:13.238Z,1.22
2016-12-05T12:13:12.649Z,1.31
2016-12-05T12:14:13.195Z,1.41
2016-12-05T12:15:13.566Z,1.42
2016-12-05T12:16:13.108Z,1.45
2016-12-05T12:17:12.961Z,1.49
2016-12-05T12:18:12.578Z,1.58
2016-12-05T12:19:12.948Z,1.6
2016-12-05T12:20:12.833Z,1.67
2016-12-05T12:21:13.295Z,1.73
2016-12-05T12:22:13.425Z,1.7
2016-12-05T12:23:13.733Z,1.91
2016-12-05T12:24:13.387Z,2.18
2016-12-05T12:25:12.796Z,2.2
2016-12-05T12:26:12.835Z,1.94
2016-12-05T12:27:13.475Z,1.77
2016-12-05T12:28:12.944Z,2.04
2016-12-05T12:29:12.765Z,1.94
2016-12-05T12:30:12.824Z,1.95
2016-12-05T12:31:13.303Z,1.8
2016-12-05T12:32:13.649Z,1.76
2016-12-05T12:33:13.179Z,1.71
2016-12-05T12:34:13.266Z,1.71
2016-12-05T12:35:13.690Z,1.67
2016-12-05T12:36:13.989Z,1.71
2016-12-05T12:37:13.343Z,1.74
2016-12-05T12:38:12.910Z,1.97
2016-12-05T12:39:12.962Z,2.14
2016-12-05T12:40:13.433Z,1.91
2016-12-05T12:41:13.030Z,1.88
2016-12-05T12:42:14.116Z,1.92
2016-12-05T12:43:13.299Z,1.92
2016-12-05T12:44:13.183Z,1.81
2016-12-05T12:45:13.346Z,1.92
2016-12-05T12:46:13.076Z,1.97
2016-12-05T12:47:13.658Z,2.13
2016-12-05T12:48:13.276Z,2.14
2016-12-05T12:49:13.098Z,2.26
2016-12-05T12:50:13.734Z,2.22
2016-12-05T12:51:13.221Z,2.17
2016-12-05T12:52:13.266Z,1.99
2016-12-05T12:53:14.416Z,2.1
2016-12-05T12:54:14.010Z,2.13
2016-12-05T12:55:13.245Z,2.22
2016-12-05T12:56:13.758Z,2.43
2016-12-05T12:57:14.016Z,2.62
2016-12-05T12:58:13.229Z,2.44
2016-12-05T12:59:13.224Z,2.18